Latest Weather Observations for Gelantipy

IDV60801

Issued at 9:02 am EST Tuesday 30 June 2015 (issued every 30 minutes, with the page automatically refreshed every 10 minutes)

About weather observations | Map of weather stations | Latest weather observations for VIC | Other Formats
Station Details ID: 084142 Name: GELANTIPY Lat: -37.22 Lon: 148.26 Height: 755.0 m
Data from the previous 72 hours. | See also: Recent months at Gelantipy
Date/Time
EST
Temp
°C
App
Temp
°C
Dew
Point
Rel
Hum
%
Delta-T
°C
Wind Press
QNH
hPa
Press
MSL
hPa
Rain
since 9 am
mm
Dir
 
Spd
km/h
Gust
km/h
Spd
kts
Gust
kts
30/09:00am 2.2 0.4 1.3 94 0.4 CALM 0 0 0 0 1026.6 1027.6 0.0
30/08:30am 0.6 -1.4 0.0 96 0.2 CALM 0 0 0 0 1026.6 1027.6 0.0
30/08:00am -0.4 -3.8 -0.8 97 0.1 N 7 11 4 6 1026.7 1027.7 0.0
30/07:30am 0.2 -4.0 -0.6 94 0.3 NNE 11 17 6 9 1026.6 1027.6 0.0
30/07:00am 0.2 -4.3 -0.5 95 0.3 N 13 19 7 10 1026.5 1027.5 0.0
30/06:30am -0.4 -3.7 -1.0 96 0.2 NNE 6 9 3 5 1026.4 1027.4 0.0
30/06:00am 0.2 -3.6 -0.4 96 0.2 NNE 9 11 5 6 1026.3 1027.3 0.0
30/05:30am 0.7 -3.0 0.0 95 0.3 N 9 11 5 6 1026.3 1027.3 0.0
30/05:00am 0.3 -3.4 -0.1 97 0.2 N 9 11 5 6 1026.1 1027.0 0.0
30/04:30am 0.4 -3.3 0.1 98 0.1 N 9 13 5 7 1025.8 1026.7 0.0
30/04:00am 0.7 -2.9 0.6 99 0.0 NNE 9 13 5 7 1026.1 1027.0 0.0
30/03:30am 0.4 -3.2 0.3 99 0.0 N 9 11 5 6 1026.4 1027.4 0.0
30/03:00am -0.3 -3.7 -0.4 99 0.0 NNE 7 13 4 7 1026.7 1027.7 0.0
30/02:30am 0.7 -1.2 0.6 99 0.0 CALM 0 0 0 0 1026.8 1027.8 0.0
30/02:00am 0.7 -1.6 0.6 99 0.0 W 2 9 1 5 1027.1 1028.0 0.0
30/01:30am 1.0 -1.2 0.9 99 0.0 NE 2 6 1 3 1027.2 1028.1 0.0
30/01:00am 1.5 -2.0 1.4 99 0.0 N 9 11 5 6 1027.3 1028.2 0.0
30/12:30am 1.8 -1.6 1.7 99 0.0 N 9 11 5 6 1027.3 1028.2 0.0
30/12:00am 1.5 -2.0 1.4 99 0.0 N 9 11 5 6 1027.5 1028.5 0.0
 
Date/Time
EST
Temp
°C
App
Temp
°C
Dew
Point
Rel
Hum
%
Delta-T
°C
Wind Press
QNH
hPa
Press
MSL
hPa
Rain
since 9 am
mm
Dir
 
Spd
km/h
Gust
km/h
Spd
kts
Gust
kts
29/11:30pm 2.6 -0.7 2.5 99 0.0 NNE 9 11 5 6 1027.7 1028.7 0.0
29/11:00pm 3.5 -0.4 3.4 99 0.0 NNE 13 15 7 8 1027.9 1028.9 0.0
29/10:30pm 3.8 0.7 3.7 99 0.0 NNE 9 13 5 7 1028.2 1029.2 0.0
29/10:00pm 4.0 1.3 3.9 99 0.0 NNE 7 7 4 4 1028.8 1029.8 0.0
29/09:30pm 3.6 0.9 3.5 99 0.0 NNE 7 9 4 5 1029.1 1030.1 0.0
29/09:00pm 2.8 0.5 2.7 99 0.0 NNE 4 9 2 5 1029.2 1030.2 0.0
29/08:30pm 2.5 0.9 2.2 98 0.1 CALM 0 0 0 0 1029.4 1030.4 0.0
29/08:00pm 2.9 1.3 2.6 98 0.1 CALM 0 0 0 0 1029.6 1030.6 0.0
29/07:30pm 3.4 1.5 3.1 98 0.1 NE 2 7 1 4 1029.6 1030.6 0.0
29/07:00pm 3.1 1.5 2.4 95 0.3 CALM 0 0 0 0 1029.5 1030.5 0.0
29/06:30pm 4.1 1.9 3.2 94 0.4 NNE 4 7 2 4 1029.3 1030.3 0.0
29/06:00pm 4.7 3.3 3.7 93 0.4 CALM 0 0 0 0 1029.2 1030.2 0.0
29/05:30pm 5.7 3.3 4.2 90 0.7 WNW 6 9 3 5 1029.2 1030.2 0.0
29/05:00pm 7.1 4.6 4.8 85 1.0 W 7 7 4 4 1028.9 1029.9 0.0
29/04:30pm 8.7 6.2 4.5 75 1.9 S 7 11 4 6 1028.9 1029.9 0.0
29/04:00pm 9.8 7.3 4.6 70 2.4 SSW 7 9 4 5 1029.1 1030.1 0.0
29/03:30pm 10.7 8.2 4.0 63 3.1 S 6 9 3 5 1029.1 1030.1 0.0
29/03:00pm 12.1 11.0 5.0 62 3.4 CALM 0 0 0 0 1028.9 1029.9 0.0
29/02:30pm 12.0 9.7 5.0 62 3.4 NNE 6 7 3 4 1028.9 1029.9 0.0
29/02:00pm 11.2 8.6 4.2 62 3.3 NNE 7 11 4 6 1029.1 1030.1 0.0
29/01:30pm 11.8 9.4 4.3 60 3.5 NNE 6 9 3 5 1029.3 1030.3 0.0
29/01:00pm 10.9 9.1 3.5 60 3.4 NNE 2 7 1 4 1029.6 1030.6 0.0
29/12:30pm 9.2 6.1 3.6 68 2.5 NNE 9 13 5 7 1030.1 1031.1 0.0
29/12:00pm 8.6 4.9 4.6 76 1.8 NNE 13 17 7 9 1030.5 1031.5 0.0
29/11:30am 7.5 3.7 3.9 78 1.6 NNE 13 15 7 8 1030.8 1031.9 0.0
29/11:00am 6.6 2.0 3.8 82 1.2 NNE 17 20 9 11 1031.4 1032.4 0.0
29/10:30am 5.4 0.6 2.8 83 1.1 NNE 17 20 9 11 1031.8 1032.8 0.0
29/10:00am 4.9 -0.2 2.8 86 0.9 NNE 19 22 10 12 1031.8 1032.8 0.0
29/09:30am 4.1 -0.7 2.6 90 0.6 NNE 17 24 9 13 1031.8 1032.8 0.0
29/09:00am 3.5 -1.3 2.5 93 0.4 NNE 17 22 9 12 1031.9 1032.9 0.2
29/08:30am 2.6 -2.8 2.2 97 0.2 NNE 20 26 11 14 1031.7 1032.7 0.2
29/08:00am 1.7 -3.7 1.4 98 0.1 NNE 19 26 10 14 1031.6 1032.6 0.2
29/07:30am 1.7 -3.3 1.4 98 0.1 NNE 17 24 9 13 1031.6 1032.6 0.2
29/07:00am 1.9 -3.1 1.6 98 0.1 NNE 17 24 9 13 1031.4 1032.4 0.2
29/06:30am 1.8 -2.4 1.5 98 0.1 NNE 13 20 7 11 1031.3 1032.3 0.2
29/06:00am 2.6 -1.5 2.3 98 0.1 NNE 13 19 7 10 1031.5 1032.5 0.2
29/05:30am 3.1 -0.1 2.8 98 0.1 NNE 9 13 5 7 1031.4 1032.4 0.2
29/05:00am 3.3 0.5 3.0 98 0.1 NNE 7 11 4 6 1031.4 1032.4 0.2
29/04:30am 3.3 0.1 3.0 98 0.1 N 9 13 5 7 1031.3 1032.3 0.2
29/04:00am 3.8 0.7 3.4 97 0.2 N 9 13 5 7 1031.3 1032.3 0.2
29/03:30am 4.0 0.9 3.4 96 0.3 N 9 15 5 8 1031.5 1032.5 0.2
29/03:00am 4.2 -0.1 3.5 95 0.3 N 15 19 8 10 1031.5 1032.5 0.2
29/02:30am 4.5 0.7 3.8 95 0.3 NNE 13 19 7 10 1031.5 1032.5 0.2
29/02:00am 4.8 1.0 3.9 94 0.4 NE 13 19 7 10 1031.4 1032.4 0.2
29/01:30am 4.9 0.8 4.2 95 0.3 N 15 20 8 11 1031.3 1032.3 0.2
29/01:00am 4.8 1.8 4.1 95 0.3 N 9 13 5 7 1031.4 1032.4 0.2
29/12:30am 4.3 0.8 3.6 95 0.3 N 11 15 6 8 1031.5 1032.5 0.2
29/12:00am 4.4 0.4 2.8 89 0.7 NNW 13 17 7 9 1031.8 1032.8 0.2
 
Date/Time
EST
Temp
°C
App
Temp
°C
Dew
Point
Rel
Hum
%
Delta-T
°C
Wind Press
QNH
hPa
Press
MSL
hPa
Rain
since 9 am
mm
Dir
 
Spd
km/h
Gust
km/h
Spd
kts
Gust
kts
28/11:30pm 5.6 2.9 3.8 88 0.8 NNE 7 11 4 6 1032.1 1033.2 0.2
28/11:00pm 6.0 3.4 4.0 87 0.9 NNE 7 11 4 6 1032.2 1033.3 0.2
28/10:30pm 6.2 5.0 4.4 88 0.8 CALM 0 0 0 0 1032.3 1033.4 0.2
28/10:00pm 6.3 4.3 4.6 89 0.8 NNW 4 6 2 3 1032.5 1033.6 0.2
28/09:30pm 6.3 4.8 4.8 90 0.7 SSE 2 6 1 3 1032.5 1033.6 0.2
28/09:00pm 6.1 4.5 4.7 91 0.6 W 2 7 1 4 1032.5 1033.6 0.2
28/08:30pm 5.8 3.9 5.1 95 0.3 W 4 11 2 6 1032.5 1033.6 0.2
28/08:00pm 5.4 4.3 5.1 98 0.1 CALM 0 7 0 4 1032.3 1033.4 0.2
28/07:30pm 5.0 2.7 4.7 98 0.1 NNE 6 6 3 3 1032.3 1033.4 0.2
28/07:00pm 4.6 2.2 4.3 98 0.1 NNE 6 7 3 4 1032.2 1033.3 0.2
28/06:30pm 4.4 1.9 3.8 96 0.3 NW 6 6 3 3 1031.9 1032.9 0.2
28/06:00pm 5.5 4.3 4.8 95 0.3 CALM 0 0 0 0 1031.6 1032.6 0.2
28/05:30pm 5.8 4.2 4.4 91 0.6 WSW 2 7 1 4 1031.3 1032.3 0.2
28/05:00pm 6.7 4.4 5.0 89 0.8 SSW 6 7 3 4 1031.2 1032.2 0.2
28/04:30pm 7.8 5.6 5.3 84 1.2 SSW 6 7 3 4 1030.9 1032.0 0.2
28/04:00pm 8.4 6.6 5.5 82 1.4 S 4 7 2 4 1030.8 1031.9 0.2
28/03:30pm 8.8 6.4 5.4 79 1.6 S 7 13 4 7 1030.7 1031.7 0.2
28/03:00pm 9.6 7.1 5.0 73 2.1 SE 7 13 4 7 1030.4 1031.4 0.2
28/02:30pm 10.1 7.7 5.3 72 2.3 SSE 7 11 4 6 1030.3 1031.3 0.2
28/02:00pm 10.2 7.3 4.4 67 2.7 S 9 15 5 8 1030.2 1031.2 0.2
28/01:30pm 10.2 7.7 4.8 69 2.5 SE 7 13 4 7 1030.4 1031.4 0.2
28/01:00pm 9.7 6.7 3.9 67 2.6 S 9 15 5 8 1030.6 1031.6 0.2
28/12:30pm 9.7 6.7 3.9 67 2.7 SW 9 13 5 7 1030.9 1032.0 0.0
28/12:00pm 9.6 6.6 4.2 69 2.5 SSW 9 15 5 8 1031.3 1032.3 0.0
28/11:30am 9.3 6.2 3.5 67 2.6 SW 9 15 5 8 1031.7 1032.7 0.0
28/11:00am 9.9 8.4 4.9 71 2.3 WSW 2 11 1 6 1032.0 1033.1 0.0
28/10:30am 9.2 6.9 5.6 78 1.7 ENE 7 9 4 5 1032.2 1033.3 0.0
28/10:00am 7.8 5.4 5.1 83 1.2 NE 7 9 4 5 1032.2 1033.3 0.0
28/09:30am 6.0 3.0 4.3 89 0.8 NNE 9 11 5 6 1032.2 1033.3 0.0
28/09:00am 4.8 1.7 3.5 91 0.6 NNE 9 11 5 6 1032.2 1033.3 0.0
28/08:30am 4.5 0.9 3.2 91 0.6 N 11 13 6 7 1032.2 1033.3 0.0
28/08:00am 4.0 0.4 3.0 93 0.4 N 11 15 6 8 1032.1 1033.2 0.0
28/07:30am 3.2 -0.5 2.5 95 0.3 NNE 11 13 6 7 1031.9 1032.9 0.0
28/07:00am 2.5 -1.3 1.9 96 0.2 N 11 11 6 6 1031.7 1032.7 0.0
28/06:30am 2.5 -1.3 1.8 95 0.3 NNE 11 15 6 8 1031.3 1032.3 0.0
28/06:00am 2.1 -2.1 1.5 96 0.2 N 13 15 7 8 1031.0 1032.1 0.0
28/05:30am 2.2 -2.0 1.6 96 0.2 N 13 13 7 7 1030.6 1031.6 0.0
28/05:00am 1.8 -2.5 1.2 96 0.2 N 13 15 7 8 1030.4 1031.4 0.0
28/04:30am 2.0 -2.2 1.4 96 0.2 N 13 13 7 7 1030.3 1031.3 0.0
28/04:00am 1.8 -1.3 1.2 96 0.2 N 7 9 4 5 1030.2 1031.2 0.0
28/03:30am 1.8 -2.1 1.2 96 0.2 N 11 13 6 7 1030.2 1031.2 0.0
28/03:00am 1.1 -2.9 0.7 97 0.2 NNE 11 15 6 8 1030.4 1031.4 0.0
28/02:30am 1.5 -1.5 0.8 95 0.3 NE 6 7 3 4 1030.4 1031.4 0.0
28/02:00am 2.1 -1.4 1.1 93 0.4 NNW 9 11 5 6 1030.5 1031.5 0.0
28/01:30am 3.4 0.1 2.7 95 0.3 NNW 9 15 5 8 1030.3 1031.3 0.0
28/01:00am 3.4 0.5 2.7 95 0.3 N 7 9 4 5 1030.4 1031.4 0.0
28/12:30am 3.8 0.9 2.8 93 0.4 N 7 9 4 5 1030.5 1031.5 0.0
28/12:00am 4.2 0.6 3.0 92 0.5 NNW 11 13 6 7 1030.5 1031.5 0.0
 
Date/Time
EST
Temp
°C
App
Temp
°C
Dew
Point
Rel
Hum
%
Delta-T
°C
Wind Press
QNH
hPa
Press
MSL
hPa
Rain
since 9 am
mm
Dir
 
Spd
km/h
Gust
km/h
Spd
kts
Gust
kts
27/11:30pm 5.0 2.8 3.2 88 0.8 N 4 7 2 4 1030.7 1031.7 0.0
27/11:00pm 4.9 1.9 4.0 94 0.4 NW 9 11 5 6 1030.7 1031.7 0.0
27/10:30pm 5.0 3.7 4.3 95 0.3 CALM 0 6 0 3 1030.6 1031.6 0.0
27/10:00pm 5.0 3.8 4.4 96 0.3 CALM 0 0 0 0 1030.6 1031.6 0.0
27/09:30pm 4.9 3.7 4.5 97 0.2 CALM 0 0 0 0 1030.6 1031.6 0.0
27/09:00pm 4.9 3.7 4.6 98 0.1 CALM 0 0 0 0 1030.7 1031.7 0.0
27/08:30pm 4.8 3.6 4.5 98 0.1 CALM 0 0 0 0 1030.6 1031.6 0.0
27/08:00pm 5.0 3.1 4.7 98 0.1 SW 4 7 2 4 1030.7 1031.7 0.0
27/07:30pm 4.7 2.1 4.4 98 0.1 SW 7 9 4 5 1030.4 1031.4 0.0
27/07:00pm 4.3 1.7 4.0 98 0.1 W 7 7 4 4 1029.9 1030.9 0.0
27/06:30pm 4.2 2.0 3.6 96 0.3 SW 4 7 2 4 1029.6 1030.6 0.0
27/06:00pm 5.1 3.9 4.5 96 0.3 CALM 0 7 0 4 1029.2 1030.2 0.0
27/05:30pm 5.7 4.5 4.7 93 0.5 CALM 0 0 0 0 1028.9 1029.9 0.0
27/05:00pm 6.7 4.2 4.9 88 0.8 WSW 7 9 4 5 1028.8 1029.8 0.0
27/04:30pm 8.3 6.5 5.2 81 1.4 SSE 4 6 2 3 1028.7 1029.7 0.0
27/04:00pm 8.8 6.6 5.2 78 1.7 S 6 7 3 4 1028.7 1029.7 0.0
27/03:30pm 9.3 7.1 5.3 76 1.9 S 6 7 3 4 1028.8 1029.8 0.0
27/03:00pm 9.3 6.5 5.3 76 1.9 S 9 13 5 7 1028.7 1029.7 0.0
27/02:30pm 9.4 6.6 5.2 75 2.0 S 9 13 5 7 1028.7 1029.7 0.0
27/02:00pm 9.3 6.4 4.7 73 2.1 S 9 13 5 7 1028.7 1029.7 0.0
27/01:30pm 9.5 7.0 4.9 73 2.2 SSE 7 13 4 7 1028.8 1029.8 0.0
27/01:00pm 9.2 6.6 4.4 72 2.2 SSE 7 11 4 6 1029.0 1030.0 0.0
27/12:30pm 9.3 7.1 3.5 67 2.6 SSE 4 7 2 4 1029.3 1030.3 0.0
27/12:00pm 9.5 7.0 3.5 66 2.7 NNE 6 7 3 4 1029.6 1030.6 0.0
27/11:30am 8.1 5.1 3.9 75 1.9 NNE 9 13 5 7 1030.0 1031.0 0.0
27/11:00am 7.2 3.3 3.6 78 1.6 NNE 13 17 7 9 1030.4 1031.4 0.0
27/10:30am 6.1 2.2 3.6 84 1.1 NNE 13 15 7 8 1030.8 1031.9 0.0
27/10:00am 4.2 0.8 3.8 97 0.2 NNE 11 15 6 8 1030.8 1031.9 0.0
27/09:30am 3.4 0.2 3.3 99 0.0 NE 9 13 5 7 1030.7 1031.7 0.0

Other Formats:

Comma delimited format used in spreadsheet applications
http://www.bom.gov.au/fwo/IDV60801/IDV60801.94913.axf

JavaScript Object Notation format (JSON) in row-major order
http://www.bom.gov.au/fwo/IDV60801/IDV60801.94913.json